Time;durP1;ratioP1;P1;durP2;ratioP2;P2;SDS_P1;SDS_P2;PMS_P1;PMS_P2;Temp;Humidity;BMP_temperature;BMP_pressure;BME280_temperature;BME280_humidity;BME280_pressure;Samples;Min_cycle;Max_cycle;Signal;HPM_P1;HPM_P2
2022/10/25 00:01:33;;;;;;;19.30;7.13;;;12.10;99.90;;;;;;5089213;28;20401;-74
2022/10/25 00:04:00;;;;;;;20.50;7.40;;;12.10;99.90;;;;;;5089619;28;20441;-74
2022/10/25 00:06:25;;;;;;;18.02;7.38;;;12.10;99.90;;;;;;5083586;28;20483;-74
2022/10/25 00:08:51;;;;;;;21.50;7.50;;;12.10;99.90;;;;;;5088405;28;20487;-73
2022/10/25 00:11:22;;;;;;;18.77;8.20;;;12.10;99.90;;;;;;5088423;28;20398;-74
2022/10/25 00:13:53;;;;;;;23.40;8.87;;;12.10;99.90;;;;;;5087725;28;20413;-74
2022/10/25 00:16:22;;;;;;;20.93;8.43;;;12.10;99.90;;;;;;5087692;28;20472;-74
2022/10/25 00:18:48;;;;;;;20.90;8.45;;;12.10;99.90;;;;;;5076215;28;20398;-74
2022/10/25 00:21:14;;;;;;;21.02;8.63;;;12.00;99.90;;;;;;5070213;28;20571;-74
2022/10/25 00:23:41;;;;;;;22.58;8.48;;;12.10;99.90;;;;;;5088836;28;20496;-74
2022/10/25 00:26:08;;;;;;;23.33;8.50;;;12.10;99.90;;;;;;5086415;28;20406;-74
2022/10/25 00:28:34;;;;;;;20.25;8.13;;;12.10;99.90;;;;;;5078259;28;20402;-74
2022/10/25 00:31:12;;;;;;;22.45;8.70;;;12.00;99.90;;;;;;5088173;28;20768;-74
2022/10/25 00:33:39;;;;;;;18.77;8.20;;;12.00;99.90;;;;;;5096316;28;20414;-74
2022/10/25 00:36:07;;;;;;;24.67;9.30;;;12.00;99.90;;;;;;5087281;28;20432;-74
2022/10/25 00:38:33;;;;;;;22.20;9.30;;;12.00;99.90;;;;;;5088405;28;20432;-74
2022/10/25 00:40:58;;;;;;;21.38;9.63;;;12.00;99.90;;;;;;5088167;28;20390;-74
2022/10/25 00:43:55;;;;;;;25.30;9.67;;;12.00;99.90;;;;;;5086708;28;20417;-74
2022/10/25 00:46:23;;;;;;;24.92;9.13;;;12.00;99.90;;;;;;5074953;28;20447;-74
2022/10/25 00:49:01;;;;;;;22.08;9.93;;;12.00;99.90;;;;;;5095718;28;20936;-74
2022/10/25 00:51:36;;;;;;;27.83;10.00;;;12.00;99.90;;;;;;5088618;28;20434;-74
2022/10/25 00:54:02;;;;;;;27.80;10.30;;;12.00;99.90;;;;;;5088422;28;20413;-74
2022/10/25 00:56:32;;;;;;;27.98;10.45;;;12.00;99.90;;;;;;5088075;28;20441;-74
2022/10/25 00:59:02;;;;;;;26.07;10.50;;;12.00;99.90;;;;;;5087774;28;20394;-74
2022/10/25 01:01:28;;;;;;;30.60;11.93;;;12.00;99.90;;;;;;5088156;28;20919;-74
2022/10/25 01:03:57;;;;;;;26.67;11.32;;;12.00;99.90;;;;;;5088452;28;20422;-74
2022/10/25 01:06:37;;;;;;;27.55;12.07;;;12.00;99.90;;;;;;5095470;28;20402;-74
2022/10/25 01:09:04;;;;;;;26.63;11.75;;;12.00;99.90;;;;;;5084670;28;20451;-74
2022/10/25 01:11:30;;;;;;;29.55;12.00;;;12.00;99.90;;;;;;5086734;28;20506;-74
2022/10/25 01:13:56;;;;;;;26.95;11.73;;;12.00;99.90;;;;;;5087955;28;20394;-74
2022/10/25 01:17:05;;;;;;;28.90;12.23;;;12.00;99.90;;;;;;5081773;28;20404;-74
2022/10/25 01:19:45;;;;;;;27.50;13.23;;;12.00;99.90;;;;;;5064561;28;20413;-74
2022/10/25 01:22:25;;;;;;;26.27;12.65;;;12.10;99.90;;;;;;5087408;28;20417;-74
2022/10/25 01:25:20;;;;;;;28.35;13.13;;;12.10;99.90;;;;;;5087690;28;20426;-74
2022/10/25 01:27:59;;;;;;;28.10;12.85;;;12.10;99.90;;;;;;5087719;28;20952;-74
2022/10/25 01:30:59;;;;;;;31.23;12.68;;;12.00;99.90;;;;;;5066864;28;20438;-74
2022/10/25 01:33:34;;;;;;;32.42;13.48;;;12.00;99.90;;;;;;5080435;28;20441;-74
2022/10/25 01:36:12;;;;;;;30.77;13.68;;;12.10;99.90;;;;;;5087248;28;20993;-74
2022/10/25 01:39:00;;;;;;;32.75;14.57;;;12.10;99.90;;;;;;5087920;28;20500;-74
2022/10/25 01:41:48;;;;;;;32.58;14.90;;;12.10;99.90;;;;;;5086064;28;20463;-74
2022/10/25 01:44:29;;;;;;;36.22;16.08;;;12.10;99.90;;;;;;5069120;28;20433;-74
2022/10/25 01:47:19;;;;;;;32.28;16.00;;;12.10;99.90;;;;;;5086590;28;20504;-74
2022/10/25 01:49:56;;;;;;;33.38;16.88;;;12.10;99.90;;;;;;5081476;28;20502;-74
2022/10/25 01:52:23;;;;;;;39.70;16.85;;;12.20;99.90;;;;;;5087657;28;20488;-74
2022/10/25 01:54:49;;;;;;;39.00;17.48;;;12.20;99.90;;;;;;5087798;28;20907;-74
2022/10/25 01:57:37;;;;;;;38.65;17.50;;;12.20;99.90;;;;;;5091600;28;20463;-74
2022/10/25 02:00:08;;;;;;;38.83;17.65;;;12.30;99.90;;;;;;5069538;28;20406;-74
2022/10/25 02:03:10;;;;;;;34.25;16.95;;;12.30;99.90;;;;;;5086344;28;20402;-74
2022/10/25 02:06:10;;;;;;;34.53;17.02;;;12.40;99.90;;;;;;5086357;28;20429;-74
2022/10/25 02:08:35;;;;;;;38.40;17.92;;;12.40;99.90;;;;;;5087576;28;20399;-74
2022/10/25 02:11:08;;;;;;;34.73;17.07;;;12.40;99.90;;;;;;5087680;28;20417;-74
2022/10/25 02:13:55;;;;;;;34.80;16.15;;;12.50;99.90;;;;;;5089665;28;20402;-74
2022/10/25 02:16:28;;;;;;;31.73;16.33;;;12.50;99.90;;;;;;5090494;28;20900;-74
2022/10/25 02:19:00;;;;;;;37.90;17.13;;;12.50;99.90;;;;;;5091613;28;20466;-74
2022/10/25 02:21:29;;;;;;;33.45;16.23;;;12.60;99.90;;;;;;5084447;28;20410;-74
2022/10/25 02:23:57;;;;;;;31.38;16.75;;;12.50;99.90;;;;;;5089703;28;20429;-74
2022/10/25 02:26:23;;;;;;;36.05;16.27;;;12.50;99.90;;;;;;5090883;28;20394;-74
2022/10/25 02:28:50;;;;;;;30.97;15.70;;;12.50;99.90;;;;;;5091097;28;20402;-74
2022/10/25 02:31:18;;;;;;;30.25;16.10;;;12.50;99.90;;;;;;5061684;28;20390;-74
2022/10/25 02:33:45;;;;;;;33.10;15.07;;;12.40;99.90;;;;;;5091244;28;20382;-73
2022/10/25 02:36:22;;;;;;;29.75;14.90;;;12.40;99.90;;;;;;5085441;28;20981;-74
2022/10/25 02:38:50;;;;;;;29.67;14.68;;;12.30;99.90;;;;;;5080415;28;20556;-74
2022/10/25 02:41:16;;;;;;;31.42;14.85;;;12.30;99.90;;;;;;5090364;28;20397;-73
2022/10/25 02:43:42;;;;;;;29.20;14.40;;;12.30;99.90;;;;;;5091003;28;20414;-74
2022/10/25 02:46:14;;;;;;;28.73;14.43;;;12.30;99.90;;;;;;5085555;28;20392;-74
2022/10/25 02:48:40;;;;;;;31.63;14.60;;;12.20;99.90;;;;;;5085552;28;20737;-73
2022/10/25 02:51:07;;;;;;;30.30;14.45;;;12.30;99.90;;;;;;5090119;28;20408;-74
2022/10/25 02:53:33;;;;;;;27.67;14.33;;;12.20;99.90;;;;;;5089410;28;20447;-74
2022/10/25 02:56:00;;;;;;;31.17;14.90;;;12.20;99.90;;;;;;5095412;28;20440;-74
2022/10/25 02:58:29;;;;;;;28.52;13.73;;;12.20;99.90;;;;;;5088752;28;20790;-74
2022/10/25 03:00:54;;;;;;;28.17;14.43;;;12.20;99.90;;;;;;5089649;28;20402;-74
2022/10/25 03:03:20;;;;;;;28.20;14.63;;;12.20;99.90;;;;;;5082598;28;20396;-74
2022/10/25 03:05:45;;;;;;;25.60;14.35;;;12.20;99.90;;;;;;5084433;28;20531;-74
2022/10/25 03:08:11;;;;;;;28.97;14.67;;;12.30;99.90;;;;;;5089991;28;20764;-73
2022/10/25 03:10:36;;;;;;;29.15;13.95;;;12.30;99.90;;;;;;5090355;28;20451;-73
2022/10/25 03:13:02;;;;;;;29.63;14.10;;;12.40;99.90;;;;;;5090330;28;20923;-74
2022/10/25 03:15:28;;;;;;;25.70;14.38;;;12.40;99.90;;;;;;5088664;28;20763;-74
2022/10/25 03:17:53;;;;;;;26.87;13.97;;;12.40;99.90;;;;;;5083641;28;20396;-74
2022/10/25 03:20:19;;;;;;;27.17;14.35;;;12.50;99.90;;;;;;5065422;28;20406;-74
2022/10/25 03:22:45;;;;;;;27.67;14.90;;;12.50;99.90;;;;;;5089086;28;20390;-74
2022/10/25 03:25:10;;;;;;;27.17;14.48;;;12.50;99.90;;;;;;5088302;28;20496;-74
2022/10/25 03:27:36;;;;;;;27.20;14.53;;;12.60;99.90;;;;;;5101813;28;20402;-74
2022/10/25 03:30:02;;;;;;;30.83;15.00;;;12.60;99.90;;;;;;5089951;28;20394;-74
2022/10/25 03:32:28;;;;;;;29.33;14.90;;;12.60;99.90;;;;;;5088398;28;20914;-74
2022/10/25 03:34:53;;;;;;;30.67;14.80;;;12.60;99.90;;;;;;5088235;28;20409;-74
2022/10/25 03:37:19;;;;;;;30.73;14.52;;;12.60;99.90;;;;;;5088050;28;20413;-74
2022/10/25 03:39:45;;;;;;;28.93;14.97;;;12.60;99.90;;;;;;5100928;28;20408;-74
2022/10/25 03:42:10;;;;;;;32.00;15.38;;;12.60;99.90;;;;;;5089896;28;20938;-73
2022/10/25 03:44:36;;;;;;;30.33;15.70;;;12.60;99.90;;;;;;5089426;28;20433;-74
2022/10/25 03:47:01;;;;;;;30.73;15.43;;;12.60;99.90;;;;;;5089721;28;20854;-74
2022/10/25 03:49:27;;;;;;;28.80;14.23;;;12.60;99.90;;;;;;5089545;28;20441;-74
2022/10/25 03:51:52;;;;;;;26.35;13.73;;;12.60;99.90;;;;;;5088990;28;20448;-74
2022/10/25 03:54:18;;;;;;;26.00;14.20;;;12.50;99.90;;;;;;5088657;28;20417;-74
2022/10/25 03:56:44;;;;;;;29.43;14.77;;;12.50;99.90;;;;;;5089095;28;20401;-74
2022/10/25 03:59:09;;;;;;;31.38;15.07;;;12.50;99.90;;;;;;5071264;28;20546;-74
2022/10/25 04:01:35;;;;;;;30.93;14.23;;;12.40;99.90;;;;;;5087636;28;20814;-74
2022/10/25 04:04:00;;;;;;;27.90;13.93;;;12.40;99.90;;;;;;5088231;28;20441;-74
2022/10/25 04:06:26;;;;;;;27.80;13.93;;;12.30;99.90;;;;;;5089050;28;20766;-74
2022/10/25 04:08:52;;;;;;;33.15;15.23;;;12.30;99.90;;;;;;5088724;28;20847;-74
2022/10/25 04:11:17;;;;;;;30.57;14.23;;;12.30;99.90;;;;;;5082764;28;20411;-74
2022/10/25 04:13:44;;;;;;;29.65;14.05;;;12.30;99.90;;;;;;5081115;28;20485;-73
2022/10/25 04:16:09;;;;;;;31.50;13.90;;;12.30;99.90;;;;;;5064675;28;20416;-74
2022/10/25 04:18:35;;;;;;;30.85;14.98;;;12.20;99.90;;;;;;5077691;28;20403;-74
2022/10/25 04:21:01;;;;;;;28.87;14.40;;;12.30;99.90;;;;;;5099999;28;20467;-74
2022/10/25 04:23:26;;;;;;;30.80;14.20;;;12.30;99.90;;;;;;5088452;28;20446;-74
2022/10/25 04:25:55;;;;;;;25.40;12.90;;;12.30;99.90;;;;;;5088892;28;20402;-74
2022/10/25 04:28:24;;;;;;;27.00;12.95;;;12.30;99.90;;;;;;5100607;28;20397;-74
2022/10/25 04:30:50;;;;;;;31.05;13.38;;;12.30;99.90;;;;;;5076493;28;20405;-74
2022/10/25 04:33:16;;;;;;;31.87;13.17;;;12.40;99.90;;;;;;5088938;28;20902;-74
2022/10/25 04:35:41;;;;;;;28.80;13.13;;;12.40;99.90;;;;;;5088533;28;20398;-74
2022/10/25 04:38:07;;;;;;;30.87;12.80;;;12.40;99.90;;;;;;5088573;28;20410;-74
2022/10/25 04:40:32;;;;;;;27.67;13.10;;;12.50;99.90;;;;;;5088282;28;20402;-74
2022/10/25 04:43:01;;;;;;;29.73;13.13;;;12.50;99.90;;;;;;5088793;28;20417;-74
2022/10/25 04:45:27;;;;;;;30.08;13.02;;;12.50;99.90;;;;;;5088649;28;20430;-74
2022/10/25 04:47:53;;;;;;;35.90;13.93;;;12.50;99.90;;;;;;5089286;28;20755;-74
2022/10/25 04:50:19;;;;;;;29.00;14.10;;;12.40;99.90;;;;;;5087054;28;20768;-74
2022/10/25 04:52:44;;;;;;;34.13;13.80;;;12.40;99.90;;;;;;5088497;28;20394;-74
2022/10/25 04:55:10;;;;;;;33.15;14.30;;;12.40;99.90;;;;;;5087999;28;20406;-74
2022/10/25 04:57:36;;;;;;;35.90;14.53;;;12.30;99.90;;;;;;5088368;28;21199;-74
2022/10/25 05:00:03;;;;;;;32.03;14.10;;;12.30;99.90;;;;;;5088528;28;20400;-74
2022/10/25 05:02:28;;;;;;;36.90;14.33;;;12.30;99.90;;;;;;5088157;28;20408;-74
2022/10/25 05:04:54;;;;;;;35.08;14.70;;;12.30;99.90;;;;;;5088094;28;20421;-74
2022/10/25 05:07:21;;;;;;;36.47;15.33;;;12.20;99.90;;;;;;5086903;28;20406;-74
2022/10/25 05:09:46;;;;;;;35.35;14.57;;;12.20;99.90;;;;;;5087381;28;20401;-74
2022/10/25 05:12:12;;;;;;;35.13;14.63;;;12.20;99.90;;;;;;5088087;28;21251;-74
2022/10/25 05:14:38;;;;;;;31.47;13.57;;;12.20;99.90;;;;;;5086491;28;20916;-74
2022/10/25 05:17:03;;;;;;;35.00;14.03;;;12.10;99.90;;;;;;5091647;28;20406;-74
2022/10/25 05:19:29;;;;;;;38.70;14.48;;;12.10;99.90;;;;;;5086972;28;20402;-74
2022/10/25 05:21:54;;;;;;;33.87;14.23;;;12.20;99.90;;;;;;5086940;28;20401;-74
2022/10/25 05:24:20;;;;;;;36.92;14.48;;;12.20;99.90;;;;;;5086644;28;20434;-74
2022/10/25 05:26:46;;;;;;;33.93;14.90;;;12.20;99.90;;;;;;5087026;28;20394;-74
2022/10/25 05:29:12;;;;;;;35.95;14.52;;;12.10;99.90;;;;;;5074731;28;20888;-74
2022/10/25 05:31:40;;;;;;;31.38;13.75;;;12.10;99.90;;;;;;5085367;28;20409;-74
2022/10/25 05:34:05;;;;;;;33.95;13.15;;;12.10;99.90;;;;;;5086947;28;20422;-74
2022/10/25 05:36:32;;;;;;;34.00;14.37;;;12.10;99.90;;;;;;5085478;28;20434;-74
2022/10/25 05:39:01;;;;;;;37.60;13.97;;;12.10;99.90;;;;;;5086006;28;20910;-75
2022/10/25 05:41:28;;;;;;;38.33;14.15;;;12.10;99.90;;;;;;5086791;28;20911;-74
2022/10/25 05:43:53;;;;;;;36.88;14.00;;;12.20;99.90;;;;;;5086743;28;20426;-74
2022/10/25 05:46:21;;;;;;;32.00;13.03;;;12.20;99.90;;;;;;5085338;28;20401;-74
2022/10/25 05:48:49;;;;;;;41.23;13.97;;;12.10;99.90;;;;;;5086509;28;20394;-74
2022/10/25 05:51:26;;;;;;;36.50;12.63;;;12.10;99.90;;;;;;5085093;28;20456;-74
2022/10/25 05:53:54;;;;;;;35.53;13.38;;;12.10;99.90;;;;;;5074002;28;20410;-74
2022/10/25 05:56:22;;;;;;;34.83;13.18;;;12.10;99.90;;;;;;5088490;28;20467;-74
2022/10/25 05:58:48;;;;;;;31.13;13.80;;;12.10;99.90;;;;;;5079740;28;20423;-74
2022/10/25 06:01:16;;;;;;;37.65;13.48;;;12.00;99.90;;;;;;5086742;28;20406;-73
2022/10/25 06:03:42;;;;;;;35.63;12.80;;;12.10;99.90;;;;;;5090163;28;20426;-74
2022/10/25 06:06:10;;;;;;;33.47;13.00;;;12.00;99.90;;;;;;5090596;28;20926;-73
2022/10/25 06:08:37;;;;;;;35.53;14.13;;;12.10;99.90;;;;;;5091709;28;20439;-74
2022/10/25 06:11:05;;;;;;;39.17;13.80;;;12.10;99.90;;;;;;5090448;28;20394;-74
2022/10/25 06:13:31;;;;;;;39.58;13.98;;;12.10;99.90;;;;;;5078987;28;20569;-75
2022/10/25 06:15:57;;;;;;;36.88;14.43;;;12.10;99.90;;;;;;5083777;28;20397;-75
2022/10/25 06:18:22;;;;;;;32.90;13.83;;;12.10;99.90;;;;;;5096469;28;20460;-74
2022/10/25 06:20:48;;;;;;;34.92;13.57;;;12.10;99.90;;;;;;5085741;28;20398;-75
2022/10/25 06:23:14;;;;;;;38.22;14.80;;;12.10;99.90;;;;;;5090400;28;20405;-75
2022/10/25 06:25:39;;;;;;;40.37;16.27;;;12.20;99.90;;;;;;5076016;28;20433;-75
2022/10/25 06:28:08;;;;;;;40.88;16.10;;;12.30;99.90;;;;;;5077092;28;20754;-75
2022/10/25 06:30:34;;;;;;;41.30;15.63;;;12.30;99.90;;;;;;5087416;28;20467;-75
2022/10/25 06:32:59;;;;;;;37.87;15.80;;;12.30;99.90;;;;;;5096224;28;20397;-75
2022/10/25 06:35:25;;;;;;;37.22;15.48;;;12.40;99.90;;;;;;5075398;28;20456;-75
2022/10/25 06:37:50;;;;;;;41.57;15.17;;;12.40;99.90;;;;;;5088015;28;20467;-75
2022/10/25 06:40:16;;;;;;;38.30;14.85;;;12.40;99.90;;;;;;5088229;28;20522;-75
2022/10/25 06:42:42;;;;;;;40.53;15.67;;;12.50;99.90;;;;;;5089973;28;20994;-75
2022/10/25 06:45:08;;;;;;;41.78;15.90;;;12.50;99.90;;;;;;5080493;28;20487;-75
2022/10/25 06:47:33;;;;;;;43.10;15.38;;;12.60;99.90;;;;;;5072785;28;20410;-75
2022/10/25 06:49:59;;;;;;;39.57;15.43;;;12.60;99.90;;;;;;5093313;27;20421;-76
2022/10/25 06:52:26;;;;;;;41.50;14.77;;;12.60;99.90;;;;;;5086690;28;20406;-75
2022/10/25 06:54:52;;;;;;;36.75;13.73;;;12.60;99.90;;;;;;5088133;28;20414;-75
2022/10/25 06:57:17;;;;;;;29.03;13.47;;;12.60;99.90;;;;;;5089187;28;20402;-75
2022/10/25 06:59:44;;;;;;;34.40;13.82;;;12.60;99.90;;;;;;5091982;28;20887;-75
2022/10/25 07:02:10;;;;;;;32.25;12.90;;;12.60;99.90;;;;;;5087362;28;20413;-75
2022/10/25 07:04:36;;;;;;;35.73;13.67;;;12.70;99.90;;;;;;5071695;28;20429;-75
2022/10/25 07:07:01;;;;;;;32.88;13.10;;;12.70;99.90;;;;;;5073371;28;20418;-75
2022/10/25 07:09:28;;;;;;;27.30;12.37;;;12.70;99.90;;;;;;5075881;28;20466;-75
2022/10/25 07:11:54;;;;;;;31.10;12.75;;;12.80;99.90;;;;;;5072327;28;20403;-75
2022/10/25 07:14:20;;;;;;;33.60;12.43;;;12.80;99.90;;;;;;5072098;28;20405;-75
2022/10/25 07:16:45;;;;;;;27.45;11.73;;;12.80;99.90;;;;;;5068612;28;20761;-75
2022/10/25 07:19:11;;;;;;;35.72;12.43;;;12.90;99.90;;;;;;5076272;28;20417;-75
2022/10/25 07:21:37;;;;;;;26.70;11.47;;;12.80;99.90;;;;;;5067875;28;20410;-75
2022/10/25 07:24:03;;;;;;;26.17;11.00;;;12.90;99.90;;;;;;5079691;28;20433;-75
2022/10/25 07:26:33;;;;;;;30.13;11.45;;;12.80;99.90;;;;;;5085223;28;20420;-74
2022/10/25 07:29:00;;;;;;;27.63;11.30;;;12.80;99.90;;;;;;5090918;28;20413;-75
2022/10/25 07:31:32;;;;;;;26.85;10.85;;;12.80;99.90;;;;;;5088587;28;20406;-75
2022/10/25 07:33:59;;;;;;;32.58;11.10;;;12.80;99.90;;;;;;5088499;28;20433;-75
2022/10/25 07:36:25;;;;;;;27.38;10.23;;;12.80;99.90;;;;;;5090459;28;20418;-75
2022/10/25 07:38:51;;;;;;;24.48;10.10;;;12.70;99.90;;;;;;5093123;28;20416;-75
2022/10/25 07:41:17;;;;;;;26.70;10.27;;;12.70;99.90;;;;;;5087374;28;20394;-75
2022/10/25 07:43:43;;;;;;;27.77;9.38;;;12.70;99.90;;;;;;5088444;28;20459;-75
2022/10/25 07:46:09;;;;;;;28.27;9.90;;;12.80;99.90;;;;;;5088337;28;20390;-75
2022/10/25 07:48:36;;;;;;;21.75;8.85;;;12.80;99.90;;;;;;5084801;28;20770;-75
2022/10/25 07:51:05;;;;;;;25.53;9.07;;;12.80;99.90;;;;;;5073831;28;20399;-75
2022/10/25 07:53:32;;;;;;;24.85;8.52;;;12.90;99.90;;;;;;5082214;28;20417;-76
2022/10/25 07:55:58;;;;;;;22.08;8.68;;;12.90;99.90;;;;;;5080694;28;20742;-75
2022/10/25 07:58:24;;;;;;;24.30;8.70;;;12.90;99.90;;;;;;5089469;28;20406;-75
2022/10/25 08:00:49;;;;;;;23.25;8.52;;;13.00;99.90;;;;;;5087648;28;20402;-75
2022/10/25 08:03:16;;;;;;;26.73;9.27;;;13.00;99.90;;;;;;5088736;28;20404;-75
2022/10/25 08:05:43;;;;;;;22.50;8.00;;;13.10;99.90;;;;;;5087910;28;20962;-76
2022/10/25 08:08:09;;;;;;;19.02;7.18;;;13.10;99.90;;;;;;5091942;28;20451;-75
2022/10/25 08:10:35;;;;;;;20.70;7.47;;;13.20;99.90;;;;;;5088213;28;20402;-75
2022/10/25 08:13:00;;;;;;;19.87;7.20;;;13.20;99.90;;;;;;5089150;28;20390;-76
2022/10/25 08:15:26;;;;;;;23.20;7.63;;;13.30;99.90;;;;;;5092482;28;20758;-75
2022/10/25 08:17:59;;;;;;;22.13;7.20;;;13.30;99.90;;;;;;5088561;28;20459;-70
2022/10/25 08:20:25;;;;;;;22.52;7.10;;;13.30;99.90;;;;;;5090311;28;20402;-74
2022/10/25 08:22:51;;;;;;;19.85;7.10;;;13.30;99.90;;;;;;5086689;28;20430;-69
2022/10/25 08:25:16;;;;;;;20.93;6.77;;;13.30;99.90;;;;;;5088020;28;20430;-74
2022/10/25 08:27:42;;;;;;;21.20;6.78;;;13.40;99.90;;;;;;5086942;28;20499;-72
2022/10/25 08:30:08;;;;;;;19.90;6.80;;;13.40;99.90;;;;;;5090718;28;20402;-73
2022/10/25 08:32:37;;;;;;;18.43;6.57;;;13.50;99.90;;;;;;5086882;28;20398;-75
2022/10/25 08:35:03;;;;;;;25.65;7.18;;;13.50;99.90;;;;;;5091113;28;20479;-75
2022/10/25 08:37:29;;;;;;;20.90;6.37;;;13.50;99.90;;;;;;5086361;28;20802;-75
2022/10/25 08:39:55;;;;;;;19.52;6.13;;;13.60;99.90;;;;;;5100453;28;20400;-75
2022/10/25 08:42:39;;;;;;;18.93;6.57;;;13.60;99.90;;;;;;5087906;28;20503;-74
2022/10/25 08:45:24;;;;;;;25.27;6.53;;;13.60;99.90;;;;;;5070136;28;20435;-75
2022/10/25 08:47:52;;;;;;;21.02;6.40;;;13.60;99.90;;;;;;5086802;28;20398;-74
2022/10/25 08:50:41;;;;;;;21.98;6.50;;;13.70;99.90;;;;;;5087116;28;20405;-75
2022/10/25 08:53:31;;;;;;;19.80;5.80;;;13.70;99.90;;;;;;5076865;28;20551;-75
2022/10/25 08:55:59;;;;;;;21.30;6.10;;;13.80;99.90;;;;;;5085914;28;20464;-75
2022/10/25 08:58:33;;;;;;;17.00;5.82;;;13.80;99.90;;;;;;5074204;28;20414;-75
2022/10/25 09:01:17;;;;;;;17.83;6.13;;;13.90;99.90;;;;;;5092668;28;20414;-75
2022/10/25 09:03:43;;;;;;;17.75;5.40;;;14.10;99.90;;;;;;5074147;28;21001;-75
2022/10/25 09:06:27;;;;;;;16.90;4.63;;;14.60;99.90;;;;;;5077960;28;20449;-75
2022/10/25 09:09:04;;;;;;;13.80;4.47;;;15.00;99.90;;;;;;5077973;28;20423;-75
2022/10/25 09:12:04;;;;;;;15.25;4.70;;;15.10;99.90;;;;;;5072791;28;20430;-75
2022/10/25 09:14:47;;;;;;;16.23;4.95;;;15.20;99.90;;;;;;5087306;28;20916;-75
2022/10/25 09:17:22;;;;;;;16.03;4.63;;;15.50;99.90;;;;;;5074265;28;20426;-75
2022/10/25 09:19:57;;;;;;;13.82;4.28;;;15.60;99.90;;;;;;5083047;28;20984;-75
2022/10/25 09:22:46;;;;;;;13.90;4.03;;;15.40;99.90;;;;;;5078630;28;20420;-75
2022/10/25 09:25:20;;;;;;;11.43;3.53;;;15.50;99.90;;;;;;5081286;28;20438;-75
2022/10/25 09:28:00;;;;;;;19.13;5.27;;;15.50;99.90;;;;;;5082230;28;20441;-75
2022/10/25 09:30:28;;;;;;;15.57;4.07;;;15.60;99.90;;;;;;5088735;28;20447;-75
2022/10/25 09:33:00;;;;;;;13.40;3.90;;;16.00;99.90;;;;;;5089402;28;20446;-75
2022/10/25 09:35:28;;;;;;;12.70;3.90;;;16.70;99.90;;;;;;5087023;28;20923;-75
2022/10/25 09:38:00;;;;;;;14.35;3.50;;;17.20;99.90;;;;;;5087606;28;20483;-75
2022/10/25 09:40:38;;;;;;;13.63;3.33;;;17.60;99.90;;;;;;5077055;28;20404;-75
2022/10/25 09:43:13;;;;;;;12.40;3.38;;;18.00;99.90;;;;;;5086733;28;20423;-75
2022/10/25 09:45:51;;;;;;;13.07;4.00;;;18.00;99.90;;;;;;5082679;28;20774;-75
2022/10/25 09:48:24;;;;;;;13.57;3.40;;;17.60;99.90;;;;;;5084564;28;20417;-75
2022/10/25 09:50:56;;;;;;;13.80;4.10;;;17.50;99.90;;;;;;5087549;28;20501;-75
2022/10/25 09:53:22;;;;;;;15.10;3.92;;;17.70;99.90;;;;;;5081006;28;20460;-75
2022/10/25 09:55:56;;;;;;;10.07;3.28;;;17.90;99.90;;;;;;5083727;28;20482;-75
2022/10/25 09:58:29;;;;;;;12.30;3.45;;;17.90;99.90;;;;;;5080376;28;20958;-76
2022/10/25 10:00:59;;;;;;;13.75;3.58;;;17.80;99.90;;;;;;5082316;28;20417;-76
2022/10/25 10:03:34;;;;;;;14.90;4.15;;;17.60;99.90;;;;;;5085811;28;21374;-75
2022/10/25 10:06:07;;;;;;;11.38;4.00;;;17.30;99.90;;;;;;5081033;28;20814;-76
2022/10/25 10:08:35;;;;;;;17.80;4.15;;;17.10;99.90;;;;;;5079203;28;20405;-75
2022/10/25 10:11:03;;;;;;;11.45;3.80;;;17.00;99.90;;;;;;5070849;28;20440;-76
2022/10/25 10:13:42;;;;;;;14.60;3.80;;;16.80;99.90;;;;;;5083627;28;20406;-75
2022/10/25 10:16:24;;;;;;;14.10;3.42;;;16.80;99.90;;;;;;5092933;28;20402;-75
2022/10/25 10:18:50;;;;;;;10.85;3.10;;;17.20;99.90;;;;;;5085273;28;20433;-76
2022/10/25 10:21:23;;;;;;;14.55;3.40;;;17.90;99.90;;;;;;5089476;28;20417;-76
2022/10/25 10:23:58;;;;;;;10.83;2.43;;;18.60;99.90;;;;;;5075884;28;20433;-76
2022/10/25 10:26:34;;;;;;;13.35;3.13;;;19.00;99.90;;;;;;5079652;28;20471;-76
2022/10/25 10:29:07;;;;;;;12.13;2.63;;;19.50;99.90;;;;;;5089755;28;20411;-76
2022/10/25 10:31:37;;;;;;;12.20;2.80;;;19.70;99.90;;;;;;5089875;28;20410;-76
2022/10/25 10:34:04;;;;;;;11.52;2.45;;;19.50;99.90;;;;;;5059305;28;20817;-75
2022/10/25 10:36:32;;;;;;;15.15;3.17;;;19.70;99.90;;;;;;5089701;28;20437;-76
2022/10/25 10:39:22;;;;;;;11.30;2.60;;;19.70;99.90;;;;;;5089430;28;20843;-76
2022/10/25 10:42:19;;;;;;;9.43;2.05;;;20.20;99.90;;;;;;5079454;28;20767;-76
2022/10/25 10:45:02;;;;;;;9.50;2.30;;;20.90;99.90;;;;;;5093073;28;20517;-77
2022/10/25 10:47:41;;;;;;;12.93;2.40;;;21.40;99.90;;;;;;5088791;28;20410;-76
2022/10/25 10:50:19;;;;;;;10.85;1.95;;;21.70;99.90;;;;;;5089966;28;20976;-77
2022/10/25 10:52:45;;;;;;;10.05;1.90;;;22.20;99.90;;;;;;5088406;28;20418;-76
2022/10/25 10:55:30;;;;;;;9.55;1.98;;;22.40;99.90;;;;;;5089260;28;20459;-76
2022/10/25 10:58:01;;;;;;;11.40;1.90;;;22.40;99.90;;;;;;5088389;28;20907;-76
2022/10/25 11:00:29;;;;;;;10.50;2.10;;;22.20;99.90;;;;;;5090936;28;20451;-76
2022/10/25 11:02:55;;;;;;;11.20;1.48;;;22.50;99.90;;;;;;5078699;28;20413;-76
2022/10/25 11:05:21;;;;;;;10.02;2.05;;;23.00;99.90;;;;;;5083758;28;20431;-76
2022/10/25 11:08:06;;;;;;;9.03;1.60;;;23.60;99.90;;;;;;5089360;28;20410;-76
2022/10/25 11:10:33;;;;;;;8.43;1.40;;;24.40;99.90;;;;;;5078808;28;20406;-77
2022/10/25 11:13:17;;;;;;;7.32;1.23;;;24.50;99.90;;;;;;5085650;28;20424;-77
2022/10/25 11:16:08;;;;;;;9.43;1.47;;;24.00;99.90;;;;;;5088902;28;20406;-76
2022/10/25 11:18:55;;;;;;;6.78;1.38;;;23.10;99.90;;;;;;5084486;28;20515;-76
2022/10/25 11:22:05;;;;;;;9.35;1.38;;;22.50;99.90;;;;;;5090239;28;20461;-76
2022/10/25 11:24:57;;;;;;;7.55;1.08;;;22.10;99.90;;;;;;5052917;28;20527;-76
2022/10/25 11:27:39;;;;;;;7.22;1.55;;;21.20;99.90;;;;;;5089011;28;20911;-75
2022/10/25 11:30:18;;;;;;;7.30;1.30;;;20.50;99.90;;;;;;5088958;28;20741;-76
2022/10/25 11:33:17;;;;;;;8.80;1.63;;;20.20;99.90;;;;;;5083608;28;20409;-76
2022/10/25 11:35:48;;;;;;;6.88;1.33;;;19.60;99.90;;;;;;5100273;28;20408;-76
2022/10/25 11:38:40;;;;;;;7.80;1.23;;;19.80;99.90;;;;;;5057242;28;20823;-76
2022/10/25 11:41:23;;;;;;;6.13;1.25;;;20.10;99.90;;;;;;5094065;28;20783;-76
2022/10/25 11:44:13;;;;;;;7.80;1.40;;;20.00;99.90;;;;;;5081575;28;20406;-76
2022/10/25 11:47:07;;;;;;;7.32;1.20;;;19.80;99.90;;;;;;5079698;28;20418;-76
2022/10/25 11:49:52;;;;;;;7.80;1.05;;;19.80;99.90;;;;;;5080353;28;20410;-76
2022/10/25 11:52:46;;;;;;;7.68;1.30;;;20.40;99.90;;;;;;5080160;28;20421;-76
2022/10/25 11:55:19;;;;;;;6.47;0.98;;;21.30;99.90;;;;;;5088351;28;20492;-76
2022/10/25 11:57:56;;;;;;;6.38;1.02;;;21.90;99.90;;;;;;5087905;28;20410;-76
2022/10/25 12:00:31;;;;;;;9.18;1.02;;;22.40;99.90;;;;;;5080608;28;20411;-76
2022/10/25 12:03:09;;;;;;;8.00;1.30;;;23.10;99.90;;;;;;5089031;28;20473;-76
2022/10/25 12:06:09;;;;;;;6.35;1.23;;;23.10;99.90;;;;;;5087429;28;20540;-76
2022/10/25 12:08:56;;;;;;;8.37;1.30;;;22.90;99.90;;;;;;5089615;28;20429;-76
2022/10/25 12:11:30;;;;;;;6.57;1.20;;;22.20;99.90;;;;;;5086215;28;20416;-76
2022/10/25 12:14:03;;;;;;;7.80;1.02;;;21.60;99.90;;;;;;5069800;28;20503;-76
2022/10/25 12:16:31;;;;;;;8.50;1.05;;;21.10;99.90;;;;;;5072628;28;20395;-76
2022/10/25 12:19:18;;;;;;;6.18;1.00;;;20.60;99.90;;;;;;5080314;28;20442;-76
2022/10/25 12:22:03;;;;;;;6.28;1.00;;;20.20;99.90;;;;;;5062050;28;20419;-76
2022/10/25 12:24:40;;;;;;;6.63;1.15;;;19.80;99.90;;;;;;5079365;28;20423;-76
2022/10/25 12:27:09;;;;;;;7.80;1.38;;;19.60;99.90;;;;;;5068927;28;20403;-76
2022/10/25 12:29:42;;;;;;;7.77;1.30;;;19.40;99.90;;;;;;5086924;28;20414;-76
2022/10/25 12:32:16;;;;;;;9.13;1.70;;;19.20;99.90;;;;;;5088388;28;20409;-76
2022/10/25 12:34:49;;;;;;;7.60;1.20;;;18.90;99.90;;;;;;5086981;28;20485;-76
2022/10/25 12:37:18;;;;;;;7.97;1.10;;;18.70;99.90;;;;;;5086060;28;20402;-76
2022/10/25 12:39:45;;;;;;;8.27;1.50;;;18.60;99.90;;;;;;5087191;28;20422;-76
2022/10/25 12:42:25;;;;;;;8.37;1.37;;;18.40;99.90;;;;;;5088667;28;20502;-76
2022/10/25 12:45:03;;;;;;;7.93;1.42;;;18.30;99.90;;;;;;5078489;28;20434;-75
2022/10/25 12:48:04;;;;;;;6.67;1.17;;;18.20;99.90;;;;;;5079704;28;20414;-76
2022/10/25 12:50:50;;;;;;;7.05;1.52;;;18.30;99.90;;;;;;5078408;28;20458;-75
2022/10/25 12:53:34;;;;;;;7.68;1.25;;;18.60;99.90;;;;;;5076486;28;20936;-76
2022/10/25 12:56:02;;;;;;;5.95;1.13;;;18.90;99.90;;;;;;5079019;28;20416;-76